Flight Track Log - Related Links

Times and Time Zones

All times are in EST time to prevent confusion due to time zone crossing. See the N589H flight status page for this flight to view local times or setup timezone preferences in your user account.

Time Position Orientation Groundspeed Altitude Reporting Facility
EST Latitude Longitude Course Direction KTS MPH feet Rate Location/Type
Tue 01:46:31 AM 25.7994 -80.3044 259° West 146 168 700  Level Miami Center
Tue 01:47:34 AM 25.7900 -80.3572 259° West 185 213 2,000 1,512 Climbing Miami Center
Tue 01:48:34 AM 25.8094 -80.4178 290° West 217 250 3,800 1,966 Climbing Miami Center
Tue 01:49:33 AM 25.8608 -80.4494 331° Northwest 223 257 5,900 2,108 Climbing Miami Center
Tue 01:49:48 AM 25.8814 -80.4569 342° North 212 244 6,400 1,948 Climbing Miami Center
Tue 01:50:50 AM 25.9269 -80.4744 341° North 244 281 8,400 1,900 Climbing Miami Center
Tue 01:51:48 AM 25.9739 -80.5175 320° Northwest 236 272 10,200 1,881 Climbing Miami Center
Tue 01:52:48 AM 26.0167 -80.5650 315° West 224 258 12,100 1,820 Climbing Miami Center
Tue 01:53:50 AM 26.0633 -80.6150 316° Northwest 224 258 13,900 1,756 Climbing Miami Center
Tue 01:54:51 AM 26.1103 -80.6650 316° Northwest 224 258 15,700 1,068 Climbing Miami Center
Tue 01:55:48 AM 26.1608 -80.7222 315° West 229 264 16,000 151 Climbing Miami Center
Tue 01:56:50 AM 26.2219 -80.7867 317° Northwest 268 308 16,000  Level Miami Center
Tue 01:57:48 AM 26.2886 -80.8631 314° West 308 354 16,000  Level Miami Center
Tue 01:58:48 AM 26.3433 -80.9253 314° West 315 362 16,000  Level Miami Center
Tue 01:59:50 AM 26.4122 -81.0017 315° West 315 362 16,000  Level Miami Center
Tue 02:00:48 AM 26.4750 -81.0667 317° Northwest 310 357 16,000  Level Miami Center
Tue 02:01:48 AM 26.5358 -81.1336 315° West 310 357 16,000  Level Miami Center
Tue 02:02:48 AM 26.5944 -81.2008 314° West 310 357 16,000  Level Miami Center
Tue 02:03:48 AM 26.6511 -81.2611 316° Northwest 310 357 16,000  Level Miami Center
Tue 02:04:50 AM 26.7117 -81.3283 315° West 310 357 16,000  Level Miami Center
Tue 02:05:48 AM 26.7722 -81.3958 315° West 310 357 16,000  Level Miami Center
Tue 02:06:48 AM 26.8325 -81.4633 315° West 310 357 16,000  Level Miami Center
Tue 02:07:48 AM 26.8950 -81.5333 315° West 310 357 16,000  Level Miami Center
Tue 02:08:48 AM 26.9614 -81.6106 314° West 310 357 16,000  Level Miami Center
Tue 02:09:48 AM 27.0158 -81.6733 314° West 310 357 16,000  Level Miami Center
Tue 02:10:48 AM 27.0822 -81.7461 316° Northwest 310 357 16,000  Level Miami Center
Tue 02:11:48 AM 27.1467 -81.8164 316° Northwest 315 362 16,000  Level Miami Center
Tue 02:12:49 AM 27.2069 -81.8867 314° West 315 362 16,000 -50 Level Miami Center
Tue 02:13:48 AM 27.2692 -81.9547 316° Northwest 315 362 15,900 -807 Descending Miami Center
Tue 02:14:48 AM 27.3272 -82.0228 314° West 315 362 14,400 -1,550 Descending Miami Center
Tue 02:15:48 AM 27.3853 -82.0886 315° West 309 356 12,800 -1,587 Descending Miami Center
Tue 02:16:49 AM 27.4414 -82.1519 315° West 297 342 11,200 -1,600 Descending Miami Center
Tue 02:17:48 AM 27.4975 -82.2178 314° West 297 342 9,600 -1,563 Descending Miami Center
Tue 02:18:48 AM 27.5497 -82.2717 318° Northwest 292 336 8,100 -1,600 Descending Miami Center
Tue 02:19:48 AM 27.6075 -82.3422 313° West 292 336 6,400 -1,672 Descending Miami Center
Tue 02:20:50 AM 27.6667 -82.4000 319° Northwest 275 316 4,700 -1,623 Descending Tampa TRACON
Tue 02:21:50 AM 27.7167 -82.4667 310° West 260 299 3,100 -1,286 Descending Tampa TRACON
Tue 02:22:56 AM 27.7667 -82.5333 310° West 251 289 2,000 -524 Descending Tampa TRACON
Tue 02:23:56 AM 27.8167 -82.5833 319° Northwest 230 265 2,000 -200 Level Tampa TRACON
Tue 02:24:56 AM 27.8500 -82.6333 307° West 198 228 1,600 -400 Descending Tampa TRACON

Login

Don't have an account? Register now (free) for customized features, flight alerts, and more!